Time;durP1;ratioP1;P1;durP2;ratioP2;P2;SDS_P1;SDS_P2;PMS_P1;PMS_P2;Temp;Humidity;BMP_temperature;BMP_pressure;BME280_temperature;BME280_humidity;BME280_pressure;Samples;Min_cycle;Max_cycle;Signal;HPM_P1;HPM_P2
2023/05/18 00:01:48;;;;;;;7.38;2.30;;;;;;;11.68;49.80;101043.78;10226981;28;20205;-66
2023/05/18 00:06:55;;;;;;;5.28;2.25;;;;;;;11.60;49.41;101022.97;10231616;28;20150;-66
2023/05/18 00:11:58;;;;;;;9.60;2.20;;;;;;;11.56;50.10;101032.19;10211442;28;20051;-65
2023/05/18 00:17:02;;;;;;;5.30;2.13;;;;;;;11.64;50.79;101032.47;10226426;28;20233;-65
2023/05/18 00:22:06;;;;;;;6.93;2.03;;;;;;;11.41;50.85;101026.13;10227174;28;20050;-66
2023/05/18 00:27:08;;;;;;;5.07;2.20;;;;;;;11.14;50.67;101023.63;10231434;28;20071;-67
2023/05/18 00:32:09;;;;;;;7.05;2.10;;;;;;;11.42;50.56;101037.66;10229867;28;20066;-66
2023/05/18 00:37:10;;;;;;;7.82;2.50;;;;;;;11.46;50.57;101034.66;10230218;28;20367;-67
2023/05/18 00:42:12;;;;;;;4.60;2.20;;;;;;;11.58;50.41;101030.25;10231104;28;20434;-67
2023/05/18 00:47:14;;;;;;;5.88;2.67;;;;;;;11.46;49.74;101015.16;10233124;28;20572;-66
2023/05/18 00:52:16;;;;;;;6.18;2.28;;;;;;;11.44;50.61;101033.91;10208423;28;20063;-66
2023/05/18 00:57:18;;;;;;;7.10;2.30;;;;;;;11.39;50.42;101021.88;10231035;28;20557;-66
2023/05/18 01:02:20;;;;;;;6.35;2.58;;;;;;;11.30;50.47;101013.59;10236553;28;20138;-67
2023/05/18 01:07:25;;;;;;;5.35;2.63;;;;;;;11.36;50.77;101049.59;10230479;28;20058;-69
2023/05/18 01:12:36;;;;;;;4.18;1.92;;;;;;;11.26;50.52;101022.75;10238769;28;20294;-66
2023/05/18 01:17:59;;;;;;;5.22;2.30;;;;;;;11.33;50.63;101039.16;10233815;28;20134;-66
2023/05/18 01:23:47;;;;;;;6.93;2.60;;;;;;;11.31;50.48;101028.59;10218379;28;20059;-65
2023/05/18 01:28:50;;;;;;;3.63;1.90;;;;;;;11.30;50.64;101034.03;10227450;28;20066;-66
2023/05/18 01:33:51;;;;;;;7.25;3.05;;;;;;;11.14;50.19;101029.81;10231867;28;20077;-66
2023/05/18 01:38:54;;;;;;;5.05;2.55;;;;;;;11.16;50.88;101031.50;10228434;28;20289;-65
2023/05/18 01:44:04;;;;;;;4.93;1.90;;;;;;;11.09;51.15;101036.41;10231994;28;20047;-65
2023/05/18 01:49:42;;;;;;;9.68;2.72;;;;;;;11.03;51.34;101031.50;10221640;28;20150;-66
2023/05/18 01:54:47;;;;;;;8.18;2.95;;;;;;;10.98;51.79;101036.31;10234428;28;20120;-66
2023/05/18 01:59:50;;;;;;;5.65;2.25;;;;;;;10.95;51.65;101029.38;10234257;28;20193;-66
2023/05/18 02:04:51;;;;;;;5.22;2.33;;;;;;;10.95;51.17;101030.22;10244090;28;20078;-66
2023/05/18 02:09:53;;;;;;;5.55;2.50;;;;;;;10.90;51.60;101023.50;10225174;28;20514;-66
2023/05/18 02:14:57;;;;;;;3.70;2.03;;;;;;;10.80;51.65;101025.97;10233167;28;20070;-66
2023/05/18 02:19:58;;;;;;;7.77;2.40;;;;;;;10.71;52.55;101026.63;10231128;28;20053;-66
2023/05/18 02:25:00;;;;;;;5.47;2.45;;;;;;;10.78;52.27;101027.91;10235683;28;20366;-68
2023/05/18 02:30:04;;;;;;;5.88;1.90;;;;;;;10.56;52.03;100994.75;10214213;28;20064;-67
2023/05/18 02:35:07;;;;;;;5.18;1.80;;;;;;;10.66;52.16;101018.06;10231595;28;20285;-67
2023/05/18 02:40:10;;;;;;;5.22;2.20;;;;;;;10.51;52.63;101002.22;10227890;28;20497;-66
2023/05/18 02:45:11;;;;;;;8.15;2.33;;;;;;;10.64;52.41;101020.00;10230750;28;20620;-67
2023/05/18 02:50:13;;;;;;;6.90;2.38;;;;;;;10.65;52.40;101027.03;10230471;28;20047;-67
2023/05/18 02:55:15;;;;;;;5.25;2.40;;;;;;;10.52;52.42;101035.84;10232702;28;20341;-66
2023/05/18 03:00:18;;;;;;;5.13;2.00;;;;;;;10.53;52.57;101026.06;10228093;28;20677;-68
2023/05/18 03:05:22;;;;;;;4.43;2.38;;;;;;;10.40;53.00;101028.69;10230010;28;20458;-67
2023/05/18 03:10:24;;;;;;;6.43;2.85;;;;;;;10.31;53.25;101037.28;10230325;28;20067;-67
2023/05/18 03:15:25;;;;;;;5.22;2.45;;;;;;;10.01;53.62;100991.34;10229171;28;20050;-67
2023/05/18 03:20:28;;;;;;;3.75;2.30;;;;;;;10.20;53.89;101033.50;10229807;28;20082;-67
2023/05/18 03:25:31;;;;;;;6.50;2.33;;;;;;;10.23;53.11;101033.31;10221460;28;20050;-66
2023/05/18 03:30:33;;;;;;;5.07;2.08;;;;;;;10.01;54.47;101027.69;10230207;28;20133;-67
2023/05/18 03:35:34;;;;;;;8.38;2.65;;;;;;;10.06;54.32;101014.97;10212059;28;20058;-67
2023/05/18 03:40:36;;;;;;;7.78;3.45;;;;;;;10.12;54.39;101035.84;10217944;28;20153;-66
2023/05/18 03:45:37;;;;;;;6.88;2.63;;;;;;;10.07;54.50;101032.63;10230494;28;20056;-67
2023/05/18 03:50:38;;;;;;;5.88;2.80;;;;;;;10.05;54.62;101050.50;10231705;28;20653;-66
2023/05/18 03:55:40;;;;;;;5.47;2.58;;;;;;;10.09;54.29;101044.03;10227736;28;20431;-66
2023/05/18 04:00:42;;;;;;;8.05;2.00;;;;;;;10.12;54.15;101050.94;10230457;28;20051;-67
2023/05/18 04:05:43;;;;;;;6.18;2.83;;;;;;;10.07;54.59;101043.25;10230257;28;20153;-67
2023/05/18 04:10:45;;;;;;;4.57;2.10;;;;;;;10.02;54.78;101056.00;10226388;28;20310;-68
2023/05/18 04:15:47;;;;;;;6.78;2.22;;;;;;;9.90;54.35;101045.22;10226544;28;20195;-69
2023/05/18 04:20:49;;;;;;;6.20;2.97;;;;;;;9.85;54.56;101049.16;10229688;28;20043;-68
2023/05/18 04:25:50;;;;;;;5.43;2.13;;;;;;;9.97;54.88;101068.75;10229301;28;20495;-68
2023/05/18 04:30:53;;;;;;;4.03;2.17;;;;;;;9.89;55.23;101062.16;10217449;28;20051;-69
2023/05/18 04:35:54;;;;;;;5.25;1.95;;;;;;;9.94;54.62;101060.97;10235646;28;20320;-67
2023/05/18 04:40:55;;;;;;;4.40;1.92;;;;;;;9.95;54.84;101060.03;10235334;28;20066;-66
2023/05/18 04:45:57;;;;;;;6.35;3.17;;;;;;;9.93;55.04;101064.59;10233952;28;20105;-67
2023/05/18 04:50:58;;;;;;;6.50;2.85;;;;;;;9.74;55.37;101047.16;10237679;28;20043;-67
2023/05/18 04:56:00;;;;;;;3.30;2.10;;;;;;;9.75;55.67;101070.13;10215358;28;20421;-66
2023/05/18 05:01:01;;;;;;;4.28;2.30;;;;;;;9.88;55.75;101068.41;10235621;28;20082;-67
2023/05/18 05:06:03;;;;;;;8.70;2.63;;;;;;;10.00;55.40;101060.59;10235068;28;20102;-68
2023/05/18 05:11:04;;;;;;;4.80;2.88;;;;;;;10.16;54.68;101074.56;10232710;28;20536;-68
2023/05/18 05:16:06;;;;;;;5.03;2.20;;;;;;;10.21;54.97;101055.66;10230117;28;20093;-67
2023/05/18 05:21:08;;;;;;;5.10;1.95;;;;;;;10.26;54.77;101054.38;10221280;28;20214;-68
2023/05/18 05:26:10;;;;;;;5.65;2.10;;;;;;;10.48;54.77;101074.28;10236594;28;20529;-66
2023/05/18 05:31:11;;;;;;;6.03;2.45;;;;;;;10.44;54.83;101056.81;10232178;28;20109;-67
2023/05/18 05:36:12;;;;;;;4.03;1.80;;;;;;;10.48;54.76;101055.66;10236101;28;20517;-67
2023/05/18 05:41:14;;;;;;;5.10;2.28;;;;;;;10.69;54.41;101081.78;10237515;28;20051;-67
2023/05/18 05:46:16;;;;;;;3.88;1.92;;;;;;;10.60;54.76;101076.13;10217434;28;20724;-69
2023/05/18 05:51:17;;;;;;;6.55;2.20;;;;;;;10.68;54.19;101080.94;10218805;28;20082;-69
2023/05/18 05:56:19;;;;;;;5.93;2.30;;;;;;;10.77;54.23;101069.66;10233806;28;20582;-67
2023/05/18 06:01:20;;;;;;;4.97;2.50;;;;;;;11.00;53.92;101083.19;10216889;28;20055;-67
2023/05/18 06:06:22;;;;;;;5.28;2.40;;;;;;;10.93;53.56;101064.13;10238417;28;20054;-68
2023/05/18 06:11:24;;;;;;;5.95;2.70;;;;;;;11.01;53.63;101084.06;10226923;28;20051;-69
2023/05/18 06:16:25;;;;;;;3.92;2.03;;;;;;;11.28;53.74;101091.94;10219889;28;20239;-68
2023/05/18 06:21:27;;;;;;;4.88;2.35;;;;;;;11.48;53.23;101101.19;10235990;28;20644;-69
2023/05/18 06:26:28;;;;;;;5.60;2.00;;;;;;;11.39;52.97;101096.50;10220358;28;20709;-66
2023/05/18 06:31:30;;;;;;;5.72;2.40;;;;;;;11.57;51.97;101092.53;10228324;28;20150;-68
2023/05/18 06:36:31;;;;;;;4.22;1.67;;;;;;;11.88;51.98;101103.66;10214343;28;20367;-68
2023/05/18 06:41:33;;;;;;;7.28;2.38;;;;;;;11.99;51.82;101106.47;10219261;28;20389;-68
2023/05/18 06:46:35;;;;;;;6.10;3.22;;;;;;;12.19;51.42;101101.47;10206665;28;20051;-67
2023/05/18 06:51:36;;;;;;;4.07;2.35;;;;;;;12.33;51.00;101087.94;10206610;28;20733;-67
2023/05/18 06:56:38;;;;;;;5.30;2.30;;;;;;;12.59;50.57;101092.28;10240940;28;20046;-67
2023/05/18 07:01:40;;;;;;;4.47;2.08;;;;;;;12.78;49.89;101111.28;10253908;28;20479;-68
2023/05/18 07:06:41;;;;;;;7.80;2.05;;;;;;;12.92;49.57;101120.91;10223612;28;20133;-66
2023/05/18 07:11:44;;;;;;;4.05;1.73;;;;;;;12.97;49.33;101108.06;10228307;28;20065;-66
2023/05/18 07:16:46;;;;;;;5.28;2.05;;;;;;;13.13;48.71;101110.38;10215170;28;20581;-66
2023/05/18 07:21:48;;;;;;;6.20;2.17;;;;;;;13.06;48.83;101096.66;10216359;28;20115;-67
2023/05/18 07:26:49;;;;;;;5.72;2.17;;;;;;;13.41;49.21;101110.94;10242598;28;20054;-66
2023/05/18 07:31:50;;;;;;;5.28;3.08;;;;;;;13.47;48.91;101099.75;10232046;28;20466;-68
2023/05/18 07:36:52;;;;;;;5.68;2.30;;;;;;;13.38;48.36;101095.16;10247407;28;20059;-67
2023/05/18 07:41:54;;;;;;;5.07;1.35;;;;;;;13.82;50.15;101097.91;10237800;28;20054;-68
2023/05/18 07:46:56;;;;;;;7.15;2.22;;;;;;;14.19;50.52;101102.94;10226756;28;20844;-64
2023/05/18 07:51:59;;;;;;;3.38;2.10;;;;;;;14.29;48.28;101093.16;10245114;28;20055;-67
2023/05/18 07:57:00;;;;;;;6.05;1.95;;;;;;;14.30;48.55;101081.47;10249277;28;20102;-67
2023/05/18 08:02:02;;;;;;;7.55;2.67;;;;;;;14.62;47.10;101078.81;10247759;28;20106;-66
2023/05/18 08:07:03;;;;;;;3.47;1.92;;;;;;;14.79;47.45;101088.09;10229608;28;20161;-67
2023/05/18 08:12:05;;;;;;;4.75;2.03;;;;;;;14.88;46.99;101066.81;10254776;28;20529;-68
2023/05/18 08:17:07;;;;;;;4.20;1.92;;;;;;;15.15;47.26;101083.22;10251096;28;20075;-66
2023/05/18 08:22:08;;;;;;;2.85;1.35;;;;;;;15.11;47.99;101078.28;10251497;28;20130;-66
2023/05/18 08:27:10;;;;;;;6.22;2.00;;;;;;;15.30;46.09;101070.31;10242258;28;20474;-68
2023/05/18 08:32:11;;;;;;;4.80;2.15;;;;;;;15.58;46.73;101073.22;10239939;28;20054;-67
2023/05/18 08:37:13;;;;;;;5.95;1.67;;;;;;;15.91;45.22;101063.19;10248043;28;20059;-66
2023/05/18 08:42:33;;;;;;;3.40;1.42;;;;;;;16.04;45.13;101055.72;10227624;28;20058;-66
2023/05/18 08:47:54;;;;;;;6.28;2.10;;;;;;;16.11;44.99;101053.34;10244687;28;20080;-67
2023/05/18 08:53:00;;;;;;;6.30;1.92;;;;;;;16.10;44.86;101054.31;10254383;28;20050;-68
2023/05/18 08:58:03;;;;;;;7.70;2.15;;;;;;;16.37;44.25;101052.78;10244325;28;20055;-67
2023/05/18 09:03:05;;;;;;;5.47;1.50;;;;;;;16.65;44.19;101034.06;10242229;28;20840;-70
2023/05/18 09:08:08;;;;;;;6.07;1.58;;;;;;;16.59;43.75;101022.06;10241474;28;20572;-69
2023/05/18 09:13:11;;;;;;;4.17;1.87;;;;;;;16.80;44.00;101027.25;10257659;28;20054;-69
2023/05/18 09:18:12;;;;;;;3.90;1.40;;;;;;;16.95;43.26;101017.75;10239951;28;20306;-67
2023/05/18 09:23:15;;;;;;;4.85;1.70;;;;;;;17.23;43.07;101023.16;10238969;28;20069;-65
2023/05/18 09:28:31;;;;;;;5.03;2.03;;;;;;;17.03;42.60;101029.63;10250689;28;20062;-70
2023/05/18 09:33:38;;;;;;;6.13;1.85;;;;;;;17.35;40.71;101020.28;10231496;28;20058;-68
2023/05/18 09:38:44;;;;;;;4.93;1.73;;;;;;;17.57;41.31;101003.72;10232928;28;20529;-68
2023/05/18 09:43:52;;;;;;;5.00;1.38;;;;;;;17.88;39.36;101021.38;10216906;28;20381;-67
2023/05/18 09:48:54;;;;;;;4.68;1.45;;;;;;;18.14;40.27;101008.03;10239458;28;20065;-66
2023/05/18 09:53:57;;;;;;;4.05;1.70;;;;;;;18.46;40.28;101003.91;10216042;28;20051;-69
2023/05/18 09:59:07;;;;;;;5.13;1.70;;;;;;;18.92;39.19;100999.19;10216212;28;21457;-65
2023/05/18 10:04:08;;;;;;;7.40;2.17;;;;;;;18.94;37.96;100985.56;10206022;28;20071;-67
2023/05/18 10:09:15;;;;;;;6.97;1.73;;;;;;;19.16;36.00;100994.94;10196234;28;20721;-69
2023/05/18 10:14:16;;;;;;;3.58;1.50;;;;;;;19.45;35.04;100993.69;10226416;28;20058;-68
2023/05/18 10:19:18;;;;;;;4.57;1.27;;;;;;;19.39;35.07;100973.59;10225049;28;20067;-69
2023/05/18 10:24:21;;;;;;;4.03;1.45;;;;;;;19.80;34.52;100986.38;10224012;28;20066;-69
2023/05/18 10:29:23;;;;;;;5.53;1.42;;;;;;;19.97;32.40;100971.91;10210425;28;20059;-68
2023/05/18 10:34:24;;;;;;;7.00;1.70;;;;;;;20.11;32.69;100968.50;10220383;28;20630;-70
2023/05/18 10:39:27;;;;;;;5.30;1.40;;;;;;;20.33;32.02;100955.34;10211484;28;20058;-68
2023/05/18 10:44:30;;;;;;;4.20;1.47;;;;;;;20.55;31.27;100975.44;10209600;28;20892;-71
2023/05/18 10:49:32;;;;;;;5.55;1.83;;;;;;;20.66;32.96;100956.16;10217643;28;20431;-69
2023/05/18 10:54:35;;;;;;;3.53;1.48;;;;;;;20.70;32.40;100953.94;10235873;28;20272;-69
2023/05/18 10:59:40;;;;;;;5.03;1.92;;;;;;;20.54;32.69;100940.44;10209053;28;20074;-69
2023/05/18 11:04:45;;;;;;;5.85;2.17;;;;;;;20.49;32.90;100960.72;10199154;28;20239;-68
2023/05/18 11:09:47;;;;;;;;;;;;;;;20.70;31.80;100955.81;10201479;28;20105;-67
2023/05/18 11:14:51;;;;;;;6.47;1.63;;;;;;;20.66;31.42;100960.72;10205907;28;20412;-70
2023/05/18 11:20:08;;;;;;;5.10;1.45;;;;;;;20.79;31.70;100957.47;10195633;28;20194;-68
2023/05/18 11:25:23;;;;;;;3.15;2.05;;;;;;;21.18;30.07;100943.97;10216231;28;20109;-69
2023/05/18 11:30:27;;;;;;;6.13;1.92;;;;;;;21.13;30.04;100940.94;10229635;28;20543;-66
2023/05/18 11:35:29;;;;;;;3.95;1.40;;;;;;;21.23;31.62;100937.16;10215436;28;20282;-68
2023/05/18 11:40:48;;;;;;;5.30;2.05;;;;;;;21.35;30.81;100928.47;10217786;28;20602;-66
2023/05/18 11:45:57;;;;;;;6.40;2.00;;;;;;;21.39;30.71;100934.38;10192334;28;20134;-67
2023/05/18 11:51:00;;;;;;;4.18;1.50;;;;;;;21.27;31.40;100922.25;10196592;28;20525;-67
2023/05/18 11:56:01;;;;;;;4.00;1.75;;;;;;;21.02;30.82;100922.38;10222212;28;20050;-67
2023/05/18 12:01:03;;;;;;;6.45;2.03;;;;;;;20.75;31.27;100929.94;10209945;28;20042;-67
2023/05/18 12:06:06;;;;;;;3.63;1.30;;;;;;;21.10;30.91;100913.38;10214587;28;20070;-67
2023/05/18 12:11:07;;;;;;;5.57;2.67;;;;;;;21.22;30.20;100908.41;10182626;28;20053;-67
2023/05/18 12:16:10;;;;;;;6.45;1.85;;;;;;;21.26;30.72;100912.44;10210039;28;20087;-66
2023/05/18 12:21:11;;;;;;;4.30;1.43;;;;;;;21.47;30.03;100914.53;10212080;28;20047;-66
2023/05/18 12:26:13;;;;;;;6.40;1.80;;;;;;;21.47;31.05;100892.88;10224647;28;20089;-67
2023/05/18 12:31:15;;;;;;;6.90;1.70;;;;;;;21.43;30.77;100886.13;10218234;28;20193;-67
2023/05/18 12:36:16;;;;;;;3.88;1.73;;;;;;;21.19;30.58;100877.97;10214951;28;20097;-67
2023/05/18 12:41:25;;;;;;;3.70;1.30;;;;;;;21.38;30.76;100897.50;10218492;28;20124;-66
2023/05/18 12:46:26;;;;;;;5.28;1.55;;;;;;;21.28;31.40;100883.34;10230145;28;20054;-66
2023/05/18 12:51:35;;;;;;;5.30;1.73;;;;;;;21.31;30.03;100891.09;10219519;28;20058;-67
2023/05/18 12:56:59;;;;;;;4.93;1.80;;;;;;;21.15;30.56;100882.06;10221921;28;20108;-66
2023/05/18 13:02:03;;;;;;;3.42;1.65;;;;;;;21.31;29.36;100882.97;10213224;28;22786;-67
2023/05/18 13:07:04;;;;;;;4.05;1.35;;;;;;;21.26;29.86;100864.56;10226992;28;20882;-66
2023/05/18 13:12:06;;;;;;;3.45;1.55;;;;;;;21.30;31.55;100857.78;10207508;28;20509;-66
2023/05/18 13:17:08;;;;;;;5.67;1.80;;;;;;;21.22;31.32;100878.66;10222090;28;20102;-68
2023/05/18 13:22:10;;;;;;;4.03;1.60;;;;;;;21.16;31.16;100874.78;10221339;28;20105;-68
2023/05/18 13:27:11;;;;;;;3.08;1.42;;;;;;;21.09;30.64;100853.00;10227610;28;20085;-67
2023/05/18 13:32:12;;;;;;;5.22;1.50;;;;;;;21.12;31.06;100858.06;10222574;28;20055;-66
2023/05/18 13:37:14;;;;;;;4.72;1.35;;;;;;;21.22;31.09;100854.28;10207939;28;20054;-66
2023/05/18 13:42:19;;;;;;;3.10;1.30;;;;;;;20.98;31.19;100854.22;10222090;28;20047;-65
2023/05/18 13:47:21;;;;;;;7.35;2.08;;;;;;;20.98;31.59;100850.69;10213364;28;20058;-66
2023/05/18 13:52:22;;;;;;;4.70;1.40;;;;;;;21.01;31.40;100839.50;10183927;28;21000;-66
2023/05/18 13:57:25;;;;;;;3.72;1.40;;;;;;;20.89;31.02;100822.00;10210205;28;20455;-68
2023/05/18 14:02:26;;;;;;;6.18;1.95;;;;;;;20.83;31.16;100831.66;10210073;28;20709;-67
2023/05/18 14:07:28;;;;;;;3.40;1.75;;;;;;;20.83;31.89;100835.19;10227148;28;21184;-69
2023/05/18 14:12:31;;;;;;;3.80;1.60;;;;;;;20.91;31.77;100828.06;10229137;28;20050;-68
2023/05/18 14:17:33;;;;;;;3.05;1.23;;;;;;;20.75;31.59;100837.13;10222690;28;20051;-69
2023/05/18 14:22:35;;;;;;;3.92;1.40;;;;;;;20.70;31.88;100810.56;10217956;28;20047;-67
2023/05/18 14:27:36;;;;;;;3.42;1.50;;;;;;;20.70;31.91;100810.56;10226285;28;20119;-68
2023/05/18 14:32:37;;;;;;;7.45;2.10;;;;;;;20.58;32.17;100804.69;10222002;28;20149;-69
2023/05/18 14:37:39;;;;;;;4.03;1.40;;;;;;;20.53;31.97;100803.53;10212053;28;20545;-67
2023/05/18 14:42:40;;;;;;;4.43;1.60;;;;;;;20.44;31.67;100797.31;10223700;28;20126;-68
2023/05/18 14:47:42;;;;;;;5.55;2.05;;;;;;;20.34;32.39;100789.38;10230404;28;20058;-67
2023/05/18 14:52:43;;;;;;;3.28;1.35;;;;;;;20.27;32.46;100783.84;10229282;28;20059;-67
2023/05/18 14:57:45;;;;;;;4.38;2.35;;;;;;;20.35;32.87;100796.50;10228993;28;20437;-68
2023/05/18 15:02:46;;;;;;;4.30;1.50;;;;;;;20.23;32.74;100784.38;10236668;28;20595;-66
2023/05/18 15:07:48;;;;;;;3.33;1.50;;;;;;;20.07;32.80;100788.81;10226614;28;20591;-67
2023/05/18 15:12:49;;;;;;;5.15;2.03;;;;;;;19.96;33.43;100797.28;10224878;28;20061;-66
2023/05/18 15:17:51;;;;;;;4.20;1.52;;;;;;;19.96;33.11;100798.13;10204579;28;20115;-68
2023/05/18 15:22:52;;;;;;;4.80;2.10;;;;;;;19.93;33.12;100792.22;10228209;28;20061;-66
2023/05/18 15:27:53;;;;;;;4.85;1.83;;;;;;;19.60;33.42;100760.66;10207221;28;20114;-71
2023/05/18 15:32:56;;;;;;;6.10;2.22;;;;;;;19.72;33.69;100780.06;10226733;28;20058;-68
2023/05/18 15:37:57;;;;;;;4.13;1.40;;;;;;;19.76;34.40;100778.72;10222247;28;20050;-67
2023/05/18 15:42:59;;;;;;;5.68;2.40;;;;;;;19.72;34.19;100785.47;10209276;28;20074;-68
2023/05/18 15:48:01;;;;;;;3.67;1.45;;;;;;;19.70;34.27;100773.16;10205167;28;20124;-68
2023/05/18 15:53:02;;;;;;;4.75;1.65;;;;;;;19.60;34.37;100749.03;10219585;28;21446;-69
2023/05/18 15:58:04;;;;;;;6.85;2.63;;;;;;;19.55;34.87;100770.31;10215369;28;20054;-67
2023/05/18 16:03:05;;;;;;;3.60;1.63;;;;;;;19.40;35.13;100743.97;10215955;28;20074;-67
2023/05/18 16:08:07;;;;;;;4.05;2.33;;;;;;;19.41;35.44;100755.59;10226896;28;20161;-67
2023/05/18 16:13:08;;;;;;;5.25;2.20;;;;;;;19.43;35.66;100753.59;10241587;28;20701;-67
2023/05/18 16:18:09;;;;;;;5.82;2.45;;;;;;;19.52;35.25;100757.97;10211797;28;20421;-68
2023/05/18 16:23:11;;;;;;;5.82;1.75;;;;;;;19.54;35.52;100760.50;10228038;28;20059;-67
2023/05/18 16:28:13;;;;;;;7.50;2.00;;;;;;;19.53;35.91;100766.91;10207861;28;20061;-67
2023/05/18 16:33:15;;;;;;;5.43;1.73;;;;;;;19.27;36.07;100757.13;10227997;28;20944;-66
2023/05/18 16:38:17;;;;;;;4.53;2.10;;;;;;;19.37;36.08;100770.47;10235495;28;20592;-67
2023/05/18 16:43:18;;;;;;;2.63;1.30;;;;;;;19.31;36.25;100772.00;10210276;28;20403;-67
2023/05/18 16:48:20;;;;;;;4.82;1.45;;;;;;;19.18;36.24;100771.63;10223925;28;20065;-68
2023/05/18 16:53:21;;;;;;;6.72;1.42;;;;;;;19.05;36.59;100778.38;10240207;28;20055;-66
2023/05/18 16:58:23;;;;;;;3.90;2.00;;;;;;;18.95;36.80;100779.53;10227573;28;20587;-67
2023/05/18 17:03:26;;;;;;;5.97;1.90;;;;;;;18.92;36.66;100782.56;10213662;28;20172;-68
2023/05/18 17:08:27;;;;;;;2.60;1.45;;;;;;;18.84;36.84;100775.25;10230778;28;20089;-68
2023/05/18 17:13:32;;;;;;;5.45;1.80;;;;;;;18.82;36.85;100788.06;10227800;28;20050;-68
2023/05/18 17:18:48;;;;;;;3.67;1.55;;;;;;;18.75;37.00;100782.50;10185745;28;20055;-69
2023/05/18 17:23:49;;;;;;;5.32;2.05;;;;;;;18.72;37.17;100785.53;10211518;28;20577;-68
2023/05/18 17:28:51;;;;;;;3.38;1.60;;;;;;;18.71;36.93;100789.22;10237364;28;20130;-68
2023/05/18 17:33:53;;;;;;;4.35;1.67;;;;;;;18.64;37.17;100782.78;10241016;28;20051;-68
2023/05/18 17:38:55;;;;;;;6.30;2.42;;;;;;;18.60;37.31;100789.50;10213208;28;20138;-68
2023/05/18 17:43:56;;;;;;;3.15;1.70;;;;;;;18.48;37.32;100781.72;10228871;28;20062;-67
2023/05/18 17:49:01;;;;;;;7.57;2.20;;;;;;;18.37;37.22;100769.41;10222920;28;20058;-67
2023/05/18 17:54:03;;;;;;;4.88;2.10;;;;;;;18.36;37.46;100781.16;10222586;28;20061;-67
2023/05/18 17:59:04;;;;;;;3.03;1.67;;;;;;;18.31;37.75;100786.19;10208546;28;20174;-67
2023/05/18 18:04:06;;;;;;;3.30;1.55;;;;;;;18.14;37.69;100784.44;10227330;28;20055;-66
2023/05/18 18:09:07;;;;;;;3.72;1.30;;;;;;;18.15;37.51;100796.88;10225616;28;20051;-67
2023/05/18 18:14:10;;;;;;;5.15;1.73;;;;;;;18.08;37.65;100791.28;10221374;28;20055;-68
2023/05/18 18:19:12;;;;;;;5.07;1.17;;;;;;;17.96;38.10;100789.88;10222067;28;20054;-68
2023/05/18 18:24:15;;;;;;;5.82;1.70;;;;;;;17.94;37.87;100805.34;10220980;28;20058;-69
2023/05/18 18:29:16;;;;;;;5.78;1.88;;;;;;;17.80;38.04;100794.09;10221787;28;20107;-67
2023/05/18 18:34:18;;;;;;;5.47;1.55;;;;;;;17.51;38.59;100783.63;10206703;28;20189;-67
2023/05/18 18:39:19;;;;;;;5.18;1.60;;;;;;;17.52;38.66;100795.22;10204922;28;20054;-66
2023/05/18 18:44:21;;;;;;;4.25;1.67;;;;;;;17.39;38.96;100812.63;10222886;28;20365;-67
2023/05/18 18:49:22;;;;;;;2.83;1.20;;;;;;;17.32;38.93;100803.47;10220061;28;21570;-68
2023/05/18 18:54:25;;;;;;;2.88;1.73;;;;;;;17.28;39.28;100802.13;10217009;28;20803;-69
2023/05/18 18:59:26;;;;;;;5.55;1.92;;;;;;;17.24;39.49;100817.69;10214289;28;20117;-69
2023/05/18 19:04:28;;;;;;;3.47;1.58;;;;;;;17.09;39.87;100817.38;10218813;28;20058;-68
2023/05/18 19:09:33;;;;;;;4.63;1.80;;;;;;;17.20;40.04;100829.75;10221885;28;20046;-68
2023/05/18 19:14:34;;;;;;;5.43;1.83;;;;;;;16.91;40.18;100828.13;10220976;28;20842;-67
2023/05/18 19:19:36;;;;;;;3.17;1.67;;;;;;;16.95;40.43;100851.03;10218160;28;20057;-69
2023/05/18 19:24:38;;;;;;;5.53;1.73;;;;;;;16.91;40.52;100859.53;10203785;28;20142;-69
2023/05/18 19:29:40;;;;;;;4.50;1.92;;;;;;;16.87;40.36;100858.97;10219759;28;20326;-67
2023/05/18 19:34:41;;;;;;;3.28;1.20;;;;;;;16.52;40.74;100843.56;10220103;28;20129;-69
2023/05/18 19:39:43;;;;;;;3.58;1.95;;;;;;;16.59;40.86;100877.78;10217197;28;20054;-69
2023/05/18 19:44:44;;;;;;;5.05;1.98;;;;;;;16.34;41.17;100871.22;10225957;28;20054;-69
2023/05/18 19:49:46;;;;;;;2.95;1.70;;;;;;;16.40;40.93;100875.16;10221141;28;20061;-70
2023/05/18 19:54:48;;;;;;;3.25;1.90;;;;;;;16.37;41.35;100880.81;10206359;28;20059;-71
2023/05/18 19:59:49;;;;;;;3.55;1.70;;;;;;;16.06;41.22;100870.28;10239301;28;20321;-67
2023/05/18 20:04:52;;;;;;;4.65;1.85;;;;;;;16.10;41.53;100889.66;10221740;28;20265;-67
2023/05/18 20:09:53;;;;;;;2.88;1.52;;;;;;;16.07;41.46;100877.34;10206284;28;20560;-67
2023/05/18 20:14:55;;;;;;;4.57;1.80;;;;;;;16.06;41.77;100895.31;10213268;28;20075;-70
2023/05/18 20:19:56;;;;;;;1.63;1.20;;;;;;;15.90;41.38;100885.16;10222156;28;20050;-70
2023/05/18 20:25:00;;;;;;;5.97;2.03;;;;;;;15.85;41.78;100887.44;10220637;28;20081;-69
2023/05/18 20:30:01;;;;;;;2.85;1.50;;;;;;;15.83;41.79;100894.75;10224229;28;20077;-72
2023/05/18 20:35:03;;;;;;;2.67;1.60;;;;;;;15.90;42.19;100912.00;10218473;28;20649;-70
2023/05/18 20:40:08;;;;;;;5.05;1.75;;;;;;;15.93;42.06;100918.06;10189206;28;20054;-68
2023/05/18 20:45:09;;;;;;;3.80;1.60;;;;;;;15.83;42.16;100913.53;10215693;28;20142;-71
2023/05/18 20:50:12;;;;;;;3.80;1.30;;;;;;;15.68;42.35;100912.25;10226818;28;20046;-71
2023/05/18 20:55:13;;;;;;;3.67;1.80;;;;;;;15.69;42.61;100919.31;10217106;28;20059;-71
2023/05/18 21:00:17;;;;;;;5.80;2.20;;;;;;;15.57;42.71;100907.88;10203928;28;20059;-71
2023/05/18 21:05:18;;;;;;;6.67;1.70;;;;;;;15.57;42.77;100915.94;10223783;28;20073;-70
2023/05/18 21:10:20;;;;;;;4.60;1.90;;;;;;;15.51;43.00;100927.22;10208300;28;20053;-69
2023/05/18 21:15:21;;;;;;;2.83;1.33;;;;;;;15.56;42.96;100941.88;10218715;28;20725;-70
2023/05/18 21:20:23;;;;;;;4.45;1.50;;;;;;;15.49;43.07;100935.41;10210209;28;20146;-70
2023/05/18 21:25:24;;;;;;;3.70;1.73;;;;;;;15.36;43.88;100937.50;10227959;28;20153;-70
2023/05/18 21:30:26;;;;;;;4.10;2.00;;;;;;;15.19;44.06;100926.44;10227013;28;20058;-70
2023/05/18 21:35:27;;;;;;;5.40;1.73;;;;;;;15.26;44.21;100940.13;10225430;28;20109;-71
2023/05/18 21:40:28;;;;;;;3.85;1.38;;;;;;;15.09;44.10;100914.84;10202388;28;20050;-72
2023/05/18 21:45:30;;;;;;;3.30;1.35;;;;;;;15.12;44.10;100927.13;10226619;28;20062;-67
2023/05/18 21:50:35;;;;;;;2.38;1.15;;;;;;;15.12;44.35;100925.28;10230860;28;20062;-67
2023/05/18 21:55:36;;;;;;;2.78;1.35;;;;;;;14.99;44.90;100930.03;10232668;28;20124;-67
2023/05/18 22:00:38;;;;;;;3.67;1.50;;;;;;;14.94;45.02;100913.53;10229975;28;20469;-67
2023/05/18 22:05:43;;;;;;;3.60;1.70;;;;;;;14.90;44.84;100920.13;10229561;28;20055;-68
2023/05/18 22:10:45;;;;;;;4.88;1.65;;;;;;;14.79;45.08;100905.84;10232210;28;20066;-69
2023/05/18 22:15:46;;;;;;;6.03;2.13;;;;;;;14.90;45.49;100937.06;10231887;28;20051;-67
2023/05/18 22:20:48;;;;;;;5.38;1.50;;;;;;;14.85;45.51;100937.47;10232467;28;20716;-69
2023/05/18 22:25:50;;;;;;;3.20;1.70;;;;;;;14.71;45.55;100919.06;10229725;28;20050;-68
2023/05/18 22:30:51;;;;;;;6.43;2.17;;;;;;;14.68;45.59;100924.69;10233679;28;20141;-65
2023/05/18 22:35:53;;;;;;;3.15;1.65;;;;;;;14.57;45.49;100909.53;10214792;28;20050;-66
2023/05/18 22:40:54;;;;;;;2.50;1.20;;;;;;;14.63;45.68;100924.25;10233792;28;20067;-66
2023/05/18 22:45:56;;;;;;;4.22;1.50;;;;;;;14.48;45.77;100910.31;10227549;28;20047;-66
2023/05/18 22:50:59;;;;;;;3.20;1.60;;;;;;;14.31;45.78;100890.38;10234604;28;20054;-66
2023/05/18 22:56:01;;;;;;;3.45;1.70;;;;;;;14.50;46.15;100933.31;10231661;28;20752;-66
2023/05/18 23:01:02;;;;;;;6.32;1.85;;;;;;;14.38;46.18;100918.31;10221183;28;20475;-65
2023/05/18 23:06:05;;;;;;;5.82;1.50;;;;;;;14.36;46.38;100916.75;10215934;28;20051;-65
2023/05/18 23:11:06;;;;;;;3.38;1.70;;;;;;;14.33;46.30;100925.88;10232775;28;20054;-65